createdAt,value
2018-04-17T00:01:27.585Z,80.66
2018-04-17T00:03:55.062Z,80.80
2018-04-17T00:06:22.623Z,80.42
2018-04-17T00:08:50.145Z,80.34
2018-04-17T00:11:17.625Z,80.48
2018-04-17T00:13:45.108Z,80.51
2018-04-17T00:16:12.594Z,80.96
2018-04-17T00:18:40.068Z,80.80
2018-04-17T00:21:07.557Z,80.72
2018-04-17T00:23:35.083Z,81.10
2018-04-17T00:26:02.557Z,81.33
2018-04-17T00:28:30.057Z,81.35
2018-04-17T00:30:57.582Z,81.73
2018-04-17T00:33:25.062Z,82.28
2018-04-17T00:35:52.641Z,82.53
2018-04-17T00:38:20.139Z,82.88
2018-04-17T00:40:47.635Z,83.13
2018-04-17T00:43:15.107Z,83.12
2018-04-17T00:45:42.666Z,83.37
2018-04-17T00:48:10.126Z,83.70
2018-04-17T00:50:37.636Z,83.81
2018-04-17T00:53:17.020Z,84.19
2018-04-17T00:55:44.525Z,84.35
2018-04-17T00:58:12.021Z,84.42
2018-04-17T01:00:39.506Z,84.72
2018-04-17T01:03:06.998Z,84.76
2018-04-17T01:05:34.524Z,84.41
2018-04-17T01:08:02.018Z,84.41
2018-04-17T01:10:29.519Z,84.72
2018-04-17T01:12:57.006Z,85.11
2018-04-17T01:15:24.525Z,85.52
2018-04-17T01:17:52.013Z,85.43
2018-04-17T01:20:19.487Z,85.62
2018-04-17T01:22:46.957Z,85.68
2018-04-17T01:25:14.527Z,86.14
2018-04-17T01:27:42.009Z,86.29
2018-04-17T01:30:09.566Z,86.46
2018-04-17T01:32:37.025Z,86.79
2018-04-17T01:35:04.528Z,87.08
2018-04-17T01:37:32.031Z,87.35
2018-04-17T01:39:59.529Z,87.67
2018-04-17T01:42:26.997Z,87.77
2018-04-17T01:44:54.507Z,87.75
2018-04-17T01:47:22.101Z,87.72
2018-04-17T01:49:49.601Z,87.56
2018-04-17T01:52:17.089Z,87.61
2018-04-17T01:54:44.591Z,87.63
2018-04-17T01:57:12.055Z,87.87
2018-04-17T01:59:39.592Z,88.18
2018-04-17T02:02:07.088Z,88.36
2018-04-17T02:04:34.579Z,88.42
2018-04-17T02:07:02.102Z,88.49
2018-04-17T02:09:29.565Z,88.83
2018-04-17T02:11:57.032Z,89.02
2018-04-17T02:14:24.522Z,89.10
2018-04-17T02:16:51.971Z,89.16
2018-04-17T02:19:19.460Z,89.32
2018-04-17T02:21:46.916Z,89.53
2018-04-17T02:24:14.402Z,89.55
2018-04-17T02:26:41.884Z,89.71
2018-04-17T02:29:09.342Z,89.87
2018-04-17T02:31:36.832Z,89.91
2018-04-17T02:34:04.329Z,89.78
2018-04-17T02:36:31.837Z,89.63
2018-04-17T02:38:59.367Z,89.61
2018-04-17T02:41:26.857Z,89.57
2018-04-17T02:43:54.432Z,89.60
2018-04-17T02:46:21.928Z,89.58
2018-04-17T02:48:49.413Z,89.54
2018-04-17T02:51:16.887Z,89.70
2018-04-17T02:53:44.443Z,89.90
2018-04-17T02:56:11.909Z,89.92
2018-04-17T02:58:39.378Z,90.03
2018-04-17T03:01:06.938Z,90.15
2018-04-17T03:03:34.416Z,90.13
2018-04-17T03:06:01.901Z,90.13
2018-04-17T03:08:29.369Z,90.26
2018-04-17T03:10:56.849Z,90.37
2018-04-17T03:13:24.378Z,90.32
2018-04-17T03:15:51.864Z,90.44
2018-04-17T03:18:19.420Z,90.48
2018-04-17T03:20:46.920Z,90.47
2018-04-17T03:23:14.422Z,90.45
2018-04-17T03:25:41.946Z,90.37
2018-04-17T03:28:09.408Z,90.30
2018-04-17T03:30:36.895Z,90.26
2018-04-17T03:33:04.404Z,90.29
2018-04-17T03:35:32.772Z,90.29
2018-04-17T03:38:00.232Z,90.37
2018-04-17T03:40:27.717Z,90.41
2018-04-17T03:42:55.247Z,90.41
2018-04-17T03:45:22.707Z,90.40
2018-04-17T03:47:50.261Z,90.50
2018-04-17T03:50:17.755Z,90.52
2018-04-17T03:52:45.242Z,90.53
2018-04-17T03:55:12.774Z,90.58
2018-04-17T03:57:40.314Z,90.74
2018-04-17T04:00:07.790Z,90.77
2018-04-17T04:02:35.285Z,90.93
2018-04-17T04:05:02.789Z,90.97
2018-04-17T04:07:30.298Z,90.90
2018-04-17T04:09:57.789Z,90.82
2018-04-17T04:12:25.239Z,90.41
2018-04-17T04:14:52.756Z,90.26
2018-04-17T04:17:32.802Z,90.36
2018-04-17T04:20:12.056Z,90.40
2018-04-17T04:22:51.472Z,90.49
2018-04-17T04:25:37.371Z,90.50
2018-04-17T04:28:04.866Z,90.46
2018-04-17T04:30:32.324Z,90.29
2018-04-17T04:32:59.808Z,90.23
2018-04-17T04:35:27.336Z,89.99
2018-04-17T04:37:54.830Z,89.48
2018-04-17T04:40:22.315Z,88.11
2018-04-17T04:42:49.836Z,87.21
2018-04-17T04:45:17.337Z,87.51
2018-04-17T04:47:44.836Z,87.28
2018-04-17T04:50:12.387Z,86.97
2018-04-17T04:52:39.926Z,86.78
2018-04-17T04:55:07.409Z,86.63
2018-04-17T04:57:34.911Z,86.46
2018-04-17T05:00:02.414Z,86.31
2018-04-17T05:02:29.884Z,86.20
2018-04-17T05:04:57.361Z,86.20
2018-04-17T05:07:25.052Z,86.24
2018-04-17T05:09:52.623Z,86.24
2018-04-17T05:12:20.108Z,86.13
2018-04-17T05:14:47.611Z,86.10
2018-04-17T05:17:15.115Z,85.90
2018-04-17T05:19:42.782Z,85.46
2018-04-17T05:22:10.313Z,85.10
2018-04-17T05:24:37.809Z,85.08
2018-04-17T05:27:05.340Z,84.93
2018-04-17T05:29:32.922Z,84.92
2018-04-17T05:32:00.430Z,85.04
2018-04-17T05:34:27.904Z,85.03
2018-04-17T05:36:55.376Z,84.72
2018-04-17T05:39:22.949Z,84.16
2018-04-17T05:41:50.450Z,83.60
2018-04-17T05:44:23.711Z,83.04
2018-04-17T05:46:51.243Z,82.55
2018-04-17T05:49:18.857Z,82.03
2018-04-17T05:51:46.408Z,81.73
2018-04-17T05:54:13.969Z,81.29
2018-04-17T05:56:41.444Z,81.06
2018-04-17T05:59:08.970Z,80.69
2018-04-17T06:01:36.513Z,80.35
2018-04-17T06:04:04.035Z,80.64
2018-04-17T06:06:31.503Z,80.68
2018-04-17T06:08:59.021Z,80.74
2018-04-17T06:11:26.547Z,80.83
2018-04-17T06:13:54.059Z,81.09
2018-04-17T06:16:21.584Z,81.20
2018-04-17T06:18:49.053Z,81.10
2018-04-17T06:21:16.586Z,80.69
2018-04-17T06:23:44.285Z,80.35
2018-04-17T06:26:11.810Z,80.00
2018-04-17T06:28:39.332Z,80.03
2018-04-17T06:31:06.831Z,79.97
2018-04-17T06:33:34.347Z,79.02
2018-04-17T06:36:01.821Z,78.58
2018-04-17T06:38:29.333Z,78.00
2018-04-17T06:40:56.909Z,77.42
2018-04-17T06:43:24.406Z,78.08
2018-04-17T06:45:51.918Z,78.07
2018-04-17T06:48:19.419Z,77.82
2018-04-17T06:50:46.884Z,76.85
2018-04-17T06:53:14.414Z,77.61
2018-04-17T06:55:41.918Z,77.75
2018-04-17T06:58:09.419Z,76.92
2018-04-17T07:00:36.930Z,76.57
2018-04-17T07:03:04.394Z,77.39
2018-04-17T07:05:31.967Z,76.81
2018-04-17T07:07:59.449Z,76.80
2018-04-17T07:10:26.988Z,76.33
2018-04-17T07:12:54.461Z,76.03
2018-04-17T07:15:22.040Z,75.90
2018-04-17T07:17:49.519Z,76.09
2018-04-17T07:20:17.137Z,75.41
2018-04-17T07:22:44.647Z,75.62
2018-04-17T07:25:12.148Z,75.20
2018-04-17T07:27:39.658Z,74.96
2018-04-17T07:30:07.183Z,74.71
2018-04-17T07:32:34.643Z,74.24
2018-04-17T07:35:02.137Z,73.10
2018-04-17T07:37:29.696Z,71.51
2018-04-17T07:39:57.180Z,69.28
2018-04-17T07:42:24.677Z,68.34
2018-04-17T07:44:52.159Z,68.90
2018-04-17T07:47:31.562Z,67.54
2018-04-17T07:49:59.108Z,68.45
2018-04-17T07:52:26.627Z,68.04
2018-04-17T07:54:54.135Z,65.99
2018-04-17T07:57:21.613Z,64.19
2018-04-17T07:59:49.090Z,64.50
2018-04-17T08:02:16.598Z,62.90
2018-04-17T08:04:44.105Z,62.45
2018-04-17T08:07:11.638Z,62.21
2018-04-17T08:09:39.189Z,61.27
2018-04-17T08:12:06.692Z,61.99
2018-04-17T08:14:34.217Z,61.36
2018-04-17T08:17:01.738Z,60.57
2018-04-17T08:19:29.323Z,58.73
2018-04-17T08:21:56.861Z,57.77
2018-04-17T08:24:24.321Z,55.68
2018-04-17T08:26:51.855Z,56.46
2018-04-17T08:29:19.335Z,54.68
2018-04-17T08:31:46.791Z,54.95
2018-04-17T08:34:14.308Z,52.85
2018-04-17T08:36:41.775Z,51.01
2018-04-17T08:39:09.266Z,52.33
2018-04-17T08:41:36.873Z,51.68
2018-04-17T08:44:04.358Z,51.09
2018-04-17T08:46:31.965Z,51.41
2018-04-17T08:48:59.511Z,49.37
2018-04-17T08:51:27.012Z,49.07
2018-04-17T08:53:54.482Z,48.55
2018-04-17T08:56:21.969Z,47.42
2018-04-17T08:58:49.480Z,47.85
2018-04-17T09:01:16.953Z,47.82
2018-04-17T09:03:44.453Z,47.05
2018-04-17T09:06:11.964Z,45.93
2018-04-17T09:08:39.452Z,46.71
2018-04-17T09:11:06.939Z,46.75
2018-04-17T09:13:34.433Z,46.36
2018-04-17T09:16:01.917Z,45.17
2018-04-17T09:18:29.379Z,44.85
2018-04-17T09:20:56.879Z,45.29
2018-04-17T09:23:24.345Z,45.22
2018-04-17T09:25:51.912Z,45.17
2018-04-17T09:28:19.439Z,44.43
2018-04-17T09:30:46.978Z,43.91
2018-04-17T09:33:14.567Z,44.06
2018-04-17T09:35:42.149Z,43.56
2018-04-17T09:38:09.671Z,44.66
2018-04-17T09:40:37.138Z,44.34
2018-04-17T09:43:04.686Z,44.28
2018-04-17T09:45:32.192Z,44.14
2018-04-17T09:47:59.677Z,44.16
2018-04-17T09:50:27.176Z,43.63
2018-04-17T09:52:54.653Z,43.62
2018-04-17T09:55:22.151Z,44.05
2018-04-17T09:57:49.631Z,43.93
2018-04-17T10:00:17.093Z,42.87
2018-04-17T10:02:44.591Z,42.45
2018-04-17T10:05:12.111Z,43.07
2018-04-17T10:07:39.638Z,42.52
2018-04-17T10:10:07.099Z,42.83
2018-04-17T10:12:34.589Z,44.01
2018-04-17T10:15:02.166Z,44.24
2018-04-17T10:17:29.636Z,44.18
2018-04-17T10:19:57.136Z,44.47
2018-04-17T10:22:24.638Z,44.14
2018-04-17T10:24:52.124Z,44.40
2018-04-17T10:27:19.683Z,44.19
2018-04-17T10:29:47.183Z,43.89
2018-04-17T10:32:14.648Z,43.89
2018-04-17T10:34:42.150Z,44.65
2018-04-17T10:37:09.695Z,44.23
2018-04-17T10:39:37.159Z,43.59
2018-04-17T10:42:05.059Z,43.05
2018-04-17T10:44:32.603Z,42.75
2018-04-17T10:47:00.096Z,42.98
2018-04-17T10:49:27.587Z,43.38
2018-04-17T10:51:55.177Z,43.46
2018-04-17T10:54:22.643Z,43.14
2018-04-17T10:56:50.100Z,42.65
2018-04-17T10:59:17.612Z,42.45
2018-04-17T11:01:45.068Z,42.25
2018-04-17T11:04:12.538Z,41.90
2018-04-17T11:06:40.082Z,42.65
2018-04-17T11:09:07.571Z,43.24
2018-04-17T11:11:35.031Z,43.03
2018-04-17T11:14:02.542Z,43.37
2018-04-17T11:16:30.045Z,42.53
2018-04-17T11:18:57.504Z,42.24
2018-04-17T11:21:25.004Z,41.98
2018-04-17T11:23:52.626Z,42.28
2018-04-17T11:26:20.085Z,42.57
2018-04-17T11:28:47.556Z,42.85
2018-04-17T11:31:15.034Z,43.53
2018-04-17T11:33:42.501Z,42.35
2018-04-17T11:36:10.015Z,42.51
2018-04-17T11:38:37.572Z,43.27
2018-04-17T11:41:05.052Z,42.26
2018-04-17T11:43:32.504Z,41.48
2018-04-17T11:46:00.018Z,41.61
2018-04-17T11:48:27.598Z,41.00
2018-04-17T11:50:55.077Z,40.33
2018-04-17T11:53:22.594Z,39.13
2018-04-17T11:55:50.088Z,38.99
2018-04-17T11:58:17.550Z,39.75
2018-04-17T12:00:45.092Z,39.69
2018-04-17T12:03:12.648Z,41.87
2018-04-17T12:05:40.126Z,42.05
2018-04-17T12:08:07.643Z,42.02
2018-04-17T12:10:35.137Z,42.59
2018-04-17T12:13:02.653Z,42.21
2018-04-17T12:15:30.155Z,42.37
2018-04-17T12:17:57.610Z,42.01
2018-04-17T12:20:25.201Z,42.48
2018-04-17T12:22:52.744Z,43.28
2018-04-17T12:25:20.185Z,43.01
2018-04-17T12:27:47.655Z,42.73
2018-04-17T12:30:15.184Z,42.51
2018-04-17T12:32:42.688Z,42.49
2018-04-17T12:35:10.225Z,41.99
2018-04-17T12:37:37.691Z,41.45
2018-04-17T12:40:05.182Z,41.87
2018-04-17T12:42:32.671Z,42.89
2018-04-17T12:45:00.222Z,42.02
2018-04-17T12:47:27.716Z,41.97
2018-04-17T12:49:55.192Z,42.94
2018-04-17T12:52:22.709Z,42.23
2018-04-17T12:54:50.197Z,41.91
2018-04-17T12:57:17.663Z,41.50
2018-04-17T12:59:45.147Z,42.51
2018-04-17T13:02:12.662Z,43.46
2018-04-17T13:04:40.140Z,42.60
2018-04-17T13:07:07.805Z,42.31
2018-04-17T13:09:35.289Z,42.42
2018-04-17T13:12:02.785Z,41.98
2018-04-17T13:14:30.315Z,41.55
2018-04-17T13:16:57.846Z,41.88
2018-04-17T13:19:25.346Z,41.77
2018-04-17T13:21:52.803Z,41.16
2018-04-17T13:24:21.171Z,42.22
2018-04-17T13:26:48.657Z,42.15
2018-04-17T13:29:16.560Z,40.22
2018-04-17T13:31:44.084Z,40.94
2018-04-17T13:34:11.591Z,41.26
2018-04-17T13:36:39.084Z,41.32
2018-04-17T13:39:06.593Z,39.78
2018-04-17T13:41:34.110Z,39.28
2018-04-17T13:44:01.616Z,39.65
2018-04-17T13:46:29.125Z,38.82
2018-04-17T13:48:56.585Z,39.04
2018-04-17T13:51:24.173Z,38.94
2018-04-17T13:53:51.698Z,39.32
2018-04-17T13:56:19.190Z,39.36
2018-04-17T13:58:46.681Z,39.01
2018-04-17T14:01:14.168Z,39.48
2018-04-17T14:03:41.619Z,39.84
2018-04-17T14:06:09.088Z,39.99
2018-04-17T14:08:36.535Z,40.48
2018-04-17T14:11:04.020Z,40.10
2018-04-17T14:13:31.566Z,40.35
2018-04-17T14:15:59.064Z,40.04
2018-04-17T14:18:26.540Z,39.73
2018-04-17T14:20:54.139Z,40.63
2018-04-17T14:23:21.644Z,40.90
2018-04-17T14:25:50.344Z,40.59
2018-04-17T14:28:17.867Z,40.70
2018-04-17T14:30:45.349Z,40.31
2018-04-17T14:33:12.873Z,40.84
2018-04-17T14:35:40.426Z,40.31
2018-04-17T14:38:07.888Z,40.68
2018-04-17T14:40:35.394Z,41.22
2018-04-17T14:43:02.898Z,41.75
2018-04-17T14:45:30.369Z,41.82
2018-04-17T14:47:57.916Z,42.27
2018-04-17T14:50:25.365Z,41.96
2018-04-17T14:52:52.819Z,41.87
2018-04-17T14:55:20.325Z,42.95
2018-04-17T14:57:47.804Z,43.17
2018-04-17T15:02:49.149Z,42.04
2018-04-17T15:05:16.603Z,42.15
2018-04-17T15:07:44.067Z,42.21
2018-04-17T15:10:11.577Z,43.08
2018-04-17T15:12:39.084Z,42.96
2018-04-17T15:15:06.595Z,42.54
2018-04-17T15:17:34.104Z,42.45
2018-04-17T15:20:01.598Z,42.69
2018-04-17T15:22:29.093Z,42.29
2018-04-17T15:24:56.595Z,42.86
2018-04-17T15:27:24.073Z,42.62
2018-04-17T15:29:51.540Z,42.78
2018-04-17T15:32:19.103Z,42.28
2018-04-17T15:34:46.693Z,40.55
2018-04-17T15:37:14.196Z,38.76
2018-04-17T15:39:41.708Z,37.34
2018-04-17T15:42:09.212Z,35.17
2018-04-17T15:44:36.751Z,33.78
2018-04-17T15:47:04.312Z,32.91
2018-04-17T15:49:31.815Z,33.27
2018-04-17T15:51:59.272Z,33.26
2018-04-17T15:54:26.763Z,33.22
2018-04-17T15:56:54.242Z,33.13
2018-04-17T15:59:21.694Z,32.84
2018-04-17T16:01:49.239Z,31.84
2018-04-17T16:04:16.750Z,31.56
2018-04-17T16:06:44.207Z,32.81
2018-04-17T16:09:11.709Z,32.99
2018-04-17T16:11:39.245Z,33.21
2018-04-17T16:14:06.729Z,33.83
2018-04-17T16:16:34.179Z,34.58
2018-04-17T16:19:01.701Z,35.49
2018-04-17T16:21:29.235Z,36.16
2018-04-17T16:23:56.743Z,37.14
2018-04-17T16:26:24.252Z,38.02
2018-04-17T16:28:51.770Z,38.65
2018-04-17T16:31:19.229Z,38.80
2018-04-17T16:33:46.702Z,38.65
2018-04-17T16:36:14.195Z,37.72
2018-04-17T16:38:41.679Z,36.95
2018-04-17T16:41:09.204Z,36.56
2018-04-17T16:43:36.682Z,36.63
2018-04-17T16:46:04.171Z,37.33
2018-04-17T16:48:31.678Z,39.00
2018-04-17T16:50:59.230Z,41.20
2018-04-17T16:53:26.690Z,41.94
2018-04-17T16:55:54.160Z,42.66
2018-04-17T16:58:21.709Z,43.24
2018-04-17T17:00:49.272Z,43.81
2018-04-17T17:03:16.760Z,44.02
2018-04-17T17:05:44.308Z,43.90
2018-04-17T17:08:11.772Z,44.31
2018-04-17T17:10:39.311Z,46.07
2018-04-17T17:13:06.820Z,45.08
2018-04-17T17:15:34.388Z,45.35
2018-04-17T17:18:01.883Z,45.49
2018-04-17T17:20:29.437Z,45.84
2018-04-17T17:22:56.996Z,45.74
2018-04-17T17:25:24.551Z,46.34
2018-04-17T17:27:52.050Z,46.77
2018-04-17T17:30:19.553Z,47.26
2018-04-17T17:32:47.052Z,47.36
2018-04-17T17:35:14.547Z,47.46
2018-04-17T17:37:42.058Z,47.67
2018-04-17T17:40:09.548Z,47.92
2018-04-17T17:42:37.072Z,47.94
2018-04-17T17:45:04.558Z,48.10
2018-04-17T17:47:32.015Z,48.48
2018-04-17T17:49:59.539Z,48.62
2018-04-17T17:52:27.057Z,48.85
2018-04-17T17:54:54.554Z,48.78
2018-04-17T17:57:22.119Z,48.83
2018-04-17T17:59:49.677Z,49.18
2018-04-17T18:02:17.187Z,49.55
2018-04-17T18:04:44.646Z,49.94
2018-04-17T18:07:12.203Z,50.16
2018-04-17T18:09:39.714Z,49.96
2018-04-17T18:12:07.271Z,50.07
2018-04-17T18:14:34.808Z,50.39
2018-04-17T18:17:02.275Z,50.51
2018-04-17T18:19:29.764Z,50.82
2018-04-17T18:21:57.240Z,51.30
2018-04-17T18:24:24.819Z,51.60
2018-04-17T18:26:52.403Z,51.84
2018-04-17T18:29:19.933Z,51.62
2018-04-17T18:31:47.429Z,51.78
2018-04-17T18:34:14.943Z,52.05
2018-04-17T18:36:42.425Z,52.19
2018-04-17T18:39:09.970Z,52.48
2018-04-17T18:41:37.467Z,52.54
2018-04-17T18:44:04.981Z,52.85
2018-04-17T18:46:32.590Z,52.83
2018-04-17T18:49:00.051Z,53.08
2018-04-17T18:51:27.507Z,53.13
2018-04-17T18:53:55.152Z,53.31
2018-04-17T18:56:22.623Z,53.43
2018-04-17T18:58:50.130Z,53.52
2018-04-17T19:01:17.600Z,53.88
2018-04-17T19:03:45.064Z,54.19
2018-04-17T19:06:12.622Z,54.01
2018-04-17T19:08:40.087Z,54.45
2018-04-17T19:11:07.603Z,55.50
2018-04-17T19:13:35.092Z,55.61
2018-04-17T19:16:02.553Z,55.61
2018-04-17T19:18:30.050Z,55.80
2018-04-17T19:20:57.603Z,55.70
2018-04-17T19:23:25.130Z,55.98
2018-04-17T19:25:52.651Z,56.14
2018-04-17T19:28:20.152Z,56.73
2018-04-17T19:30:47.827Z,57.18
2018-04-17T19:33:15.417Z,57.49
2018-04-17T19:35:42.937Z,57.53
2018-04-17T19:38:10.449Z,57.87
2018-04-17T19:40:37.922Z,57.84
2018-04-17T19:43:05.388Z,58.08
2018-04-17T19:45:32.998Z,58.71
2018-04-17T19:48:00.460Z,59.33
2018-04-17T19:50:27.936Z,59.63
2018-04-17T19:52:55.481Z,59.13
2018-04-17T19:55:22.988Z,59.72
2018-04-17T19:57:50.598Z,59.42
2018-04-17T20:00:18.399Z,59.90
2018-04-17T20:02:46.925Z,60.19
2018-04-17T20:05:14.502Z,60.50
2018-04-17T20:07:41.996Z,60.82
2018-04-17T20:10:09.465Z,60.89
2018-04-17T20:12:36.951Z,61.60
2018-04-17T20:15:04.435Z,61.89
2018-04-17T20:17:31.980Z,62.07
2018-04-17T20:19:59.556Z,62.70
2018-04-17T20:22:27.027Z,62.72
2018-04-17T20:24:54.655Z,63.01
2018-04-17T20:27:22.181Z,63.36
2018-04-17T20:29:49.680Z,64.34
2018-04-17T20:32:17.254Z,64.22
2018-04-17T20:34:44.743Z,64.17
2018-04-17T20:37:12.235Z,63.94
2018-04-17T20:39:39.732Z,63.39
2018-04-17T20:42:07.222Z,63.49
2018-04-17T20:44:34.742Z,63.79
2018-04-17T20:47:02.223Z,64.29
2018-04-17T20:49:29.683Z,64.63
2018-04-17T20:51:57.145Z,65.25
2018-04-17T20:54:24.655Z,65.85
2018-04-17T20:56:52.158Z,66.54
2018-04-17T20:59:19.656Z,66.62
2018-04-17T21:01:47.179Z,66.57
2018-04-17T21:04:14.657Z,66.29
2018-04-17T21:06:42.169Z,66.06
2018-04-17T21:09:09.644Z,66.45
2018-04-17T21:11:37.165Z,66.17
2018-04-17T21:14:04.799Z,65.96
2018-04-17T21:16:32.357Z,66.39
2018-04-17T21:18:59.820Z,66.46
2018-04-17T21:21:27.345Z,66.06
2018-04-17T21:23:54.812Z,65.56
2018-04-17T21:26:22.336Z,66.07
2018-04-17T21:28:49.816Z,65.72
2018-04-17T21:31:17.311Z,65.35
2018-04-17T21:33:44.828Z,65.65
2018-04-17T21:36:12.353Z,65.29
2018-04-17T21:38:39.888Z,65.32
2018-04-17T21:41:07.397Z,65.85
2018-04-17T21:43:34.867Z,65.49
2018-04-17T21:46:02.363Z,65.38
2018-04-17T21:48:30.116Z,65.48
2018-04-17T21:50:57.571Z,65.08
2018-04-17T21:53:25.039Z,64.81
2018-04-17T21:55:52.545Z,65.32
2018-04-17T21:58:20.070Z,65.56
2018-04-17T22:00:47.555Z,65.95
2018-04-17T22:03:15.056Z,66.18
2018-04-17T22:05:42.578Z,66.25
2018-04-17T22:08:10.059Z,66.86
2018-04-17T22:10:37.533Z,66.89
2018-04-17T22:13:04.989Z,66.38
2018-04-17T22:15:32.504Z,65.83
2018-04-17T22:17:59.983Z,65.97
2018-04-17T22:20:27.476Z,65.80
2018-04-17T22:22:54.982Z,65.17
2018-04-17T22:25:22.436Z,65.34
2018-04-17T22:27:49.922Z,65.50
2018-04-17T22:30:17.422Z,65.89
2018-04-17T22:32:44.928Z,66.44
2018-04-17T22:35:12.423Z,66.06
2018-04-17T22:37:39.883Z,65.92
2018-04-17T22:40:07.341Z,66.01
2018-04-17T22:42:34.858Z,65.87
2018-04-17T22:45:02.320Z,66.18
2018-04-17T22:47:29.783Z,67.02
2018-04-17T22:49:57.287Z,66.55
2018-04-17T22:52:24.771Z,67.29
2018-04-17T22:54:52.254Z,67.04
2018-04-17T22:57:19.773Z,67.32
2018-04-17T22:59:47.244Z,66.99
2018-04-17T23:02:14.773Z,66.99
2018-04-17T23:04:42.293Z,66.68
2018-04-17T23:07:09.752Z,66.85
2018-04-17T23:09:37.272Z,66.70
2018-04-17T23:12:04.762Z,66.71
2018-04-17T23:14:32.321Z,67.38
2018-04-17T23:16:59.796Z,67.16
2018-04-17T23:19:27.459Z,67.58
2018-04-17T23:21:54.919Z,67.66
2018-04-17T23:24:22.407Z,68.04
2018-04-17T23:26:49.940Z,67.97
2018-04-17T23:29:17.434Z,68.06
2018-04-17T23:31:44.928Z,68.23
2018-04-17T23:34:12.439Z,68.57
2018-04-17T23:48:03.226Z,70.12
2018-04-17T23:50:30.729Z,70.40
2018-04-17T23:52:58.229Z,70.57
2018-04-17T23:55:25.732Z,70.81
2018-04-17T23:57:53.219Z,70.99
